Paint Mill Lake, Indiana
Current Conditions -  °F | °C
As of 8:37 AM on Sunday 21 Dec 2014 (Local Time) from KHUF Reporting Station
Haze Haze  
Wind Chill: 19°   Ceiling: 2900
Heat Index: 27°   Visibility: 6mi
Dew Point: 24°   Wind: 8mph
Humidity: 89%   Direction: 150°SSE
Pressure: 30.29"   Gusts: NA
Location:  39.3587°N, 87.4056°W
Report Text: KHUF 211337Z 15007KT 6SM BR BKN029 M03/M04 A3029 RMK AO2 T10281044
Loading
Personal Weather Stations






























Interactive Weather Map New forecast layout! Learn more

10-Day Weather Forecast

Advertisements
Track Severe Weather on mobile